Time;durP1;ratioP1;P1;durP2;ratioP2;P2;SDS_P1;SDS_P2;PMS_P1;PMS_P2;Temp;Humidity;BMP_temperature;BMP_pressure;BME280_temperature;BME280_humidity;BME280_pressure;Samples;Min_cycle;Max_cycle;Signal;HPM_P1;HPM_P2
2023/04/09 00:00:37;;;;;;;33.33;25.77;;;;;;;11.28;80.98;102464.81;5093446;28;20487;-46
2023/04/09 00:03:02;;;;;;;33.17;26.27;;;;;;;11.30;81.58;102468.13;5093324;28;20040;-43
2023/04/09 00:05:27;;;;;;;32.22;25.55;;;;;;;11.32;81.00;102461.22;5093141;28;20032;-44
2023/04/09 00:07:53;;;;;;;31.65;26.38;;;;;;;11.29;81.11;102463.72;5093296;28;20028;-44
2023/04/09 00:10:19;;;;;;;33.67;27.38;;;;;;;11.28;80.82;102467.59;5093263;28;20157;-44
2023/04/09 00:12:44;;;;;;;31.80;26.17;;;;;;;11.27;80.99;102461.19;5093172;28;20036;-43
2023/04/09 00:15:09;;;;;;;32.78;27.25;;;;;;;11.23;81.55;102460.91;5093190;28;20477;-44
2023/04/09 00:17:35;;;;;;;32.25;26.38;;;;;;;11.23;81.40;102462.88;5091783;28;20024;-44
2023/04/09 00:20:00;;;;;;;33.60;26.60;;;;;;;11.22;81.59;102450.13;5093066;28;20073;-43
2023/04/09 00:22:25;;;;;;;33.35;26.88;;;;;;;11.27;82.01;102449.28;5093034;28;20476;-44
2023/04/09 00:24:51;;;;;;;32.17;26.05;;;;;;;11.27;81.79;102446.53;5092912;28;20031;-44
2023/04/09 00:27:16;;;;;;;31.77;25.42;;;;;;;11.28;82.04;102443.47;5093144;28;20485;-44
2023/04/09 00:29:41;;;;;;;33.17;26.60;;;;;;;11.31;81.77;102450.41;5088616;28;20110;-43
2023/04/09 00:32:07;;;;;;;32.95;26.00;;;;;;;11.31;81.69;102447.63;5092843;28;20085;-44
2023/04/09 00:34:32;;;;;;;33.53;27.50;;;;;;;11.29;81.57;102450.69;5092718;28;20052;-44
2023/04/09 00:36:58;;;;;;;33.80;27.15;;;;;;;11.25;81.63;102438.47;5092706;28;20032;-44
2023/04/09 00:39:23;;;;;;;32.65;26.65;;;;;;;11.29;81.72;102442.38;5091228;28;20146;-43
2023/04/09 00:41:48;;;;;;;35.20;27.30;;;;;;;11.28;81.93;102440.69;5092629;28;20462;-44
2023/04/09 00:44:14;;;;;;;34.08;27.30;;;;;;;11.27;81.68;102440.97;5092490;28;20111;-44
2023/04/09 00:46:39;;;;;;;34.05;26.77;;;;;;;11.19;81.86;102431.25;5092634;28;20051;-43
2023/04/09 00:49:05;;;;;;;35.05;27.85;;;;;;;11.17;81.73;102422.38;5092507;28;20033;-44
2023/04/09 00:51:30;;;;;;;33.80;26.77;;;;;;;11.21;82.17;102435.41;5092409;28;20078;-45
2023/04/09 00:53:56;;;;;;;35.53;27.60;;;;;;;11.20;81.72;102428.19;5092482;28;20114;-43
2023/04/09 00:56:22;;;;;;;34.50;28.48;;;;;;;11.16;82.11;102424.31;5092314;28;20032;-43
2023/04/09 00:58:48;;;;;;;33.20;27.70;;;;;;;11.19;82.06;102431.25;5091038;28;20111;-44
2023/04/09 01:01:13;;;;;;;35.58;28.40;;;;;;;11.17;82.11;102430.69;5092345;28;20557;-44
2023/04/09 01:03:39;;;;;;;34.90;27.58;;;;;;;11.14;82.36;102434.84;5091792;28;20028;-47
2023/04/09 01:06:07;;;;;;;35.75;28.25;;;;;;;11.15;82.99;102430.13;5092257;28;20429;-43
2023/04/09 01:08:45;;;;;;;33.72;26.98;;;;;;;11.16;83.13;102435.41;5092301;28;20085;-44
2023/04/09 01:11:55;;;;;;;33.38;26.67;;;;;;;11.19;81.98;102429.31;5092448;28;20048;-43
2023/04/09 01:14:28;;;;;;;34.65;27.30;;;;;;;11.01;82.85;102397.41;5028640;28;20047;-44
2023/04/09 01:17:05;;;;;;;34.20;27.65;;;;;;;11.14;82.50;102426.53;5092209;28;20032;-45
2023/04/09 01:19:45;;;;;;;34.08;26.85;;;;;;;11.14;83.04;102417.41;5092193;28;20142;-43
2023/04/09 01:22:39;;;;;;;34.20;27.02;;;;;;;11.14;83.12;102414.63;5092066;28;20028;-43
2023/04/09 01:25:13;;;;;;;34.22;27.25;;;;;;;11.14;83.36;102423.75;5091893;28;20744;-43
2023/04/09 01:27:53;;;;;;;34.45;27.88;;;;;;;11.00;83.54;102400.44;5092166;28;20065;-43
2023/04/09 01:30:20;;;;;;;33.55;27.05;;;;;;;11.12;83.39;102427.91;5092056;28;20028;-44
2023/04/09 01:32:46;;;;;;;35.97;27.30;;;;;;;11.10;83.44;102421.81;5091957;28;20039;-44
2023/04/09 01:35:12;;;;;;;35.00;27.67;;;;;;;11.07;83.80;102417.63;5087621;28;20080;-43
2023/04/09 01:37:39;;;;;;;34.95;27.20;;;;;;;11.06;83.48;102414.03;5091985;28;20034;-44
2023/04/09 01:40:06;;;;;;;33.85;26.65;;;;;;;11.06;83.86;102415.97;5092051;28;20052;-43
2023/04/09 01:42:32;;;;;;;35.45;27.35;;;;;;;11.04;84.25;102413.47;5091655;28;20024;-43
2023/04/09 01:44:58;;;;;;;33.42;27.10;;;;;;;11.08;84.01;102406.28;5091846;28;20431;-44
2023/04/09 01:47:26;;;;;;;35.78;29.05;;;;;;;11.11;83.95;102415.16;5091740;28;20058;-43
2023/04/09 01:49:51;;;;;;;35.53;28.05;;;;;;;11.06;84.30;102405.72;5091826;28;20036;-43
2023/04/09 01:52:17;;;;;;;35.58;28.45;;;;;;;11.10;83.82;102408.78;5091728;28;20104;-44
2023/04/09 01:54:42;;;;;;;36.28;28.50;;;;;;;11.11;83.91;102410.44;5091644;28;20036;-42
2023/04/09 01:57:07;;;;;;;35.83;28.48;;;;;;;11.10;83.89;102410.72;5091695;28;20031;-43
2023/04/09 01:59:32;;;;;;;39.80;28.70;;;;;;;11.07;84.53;102412.94;5091711;28;20534;-43
2023/04/09 02:02:09;;;;;;;35.20;28.15;;;;;;;11.09;83.97;102409.91;5091744;28;20029;-44
2023/04/09 02:04:46;;;;;;;36.53;28.98;;;;;;;11.05;84.26;102403.22;5091776;28;20024;-43
2023/04/09 02:07:14;;;;;;;36.83;28.23;;;;;;;11.07;84.22;102409.34;5091969;28;20062;-44
2023/04/09 02:09:40;;;;;;;36.55;28.20;;;;;;;11.08;84.33;102424.84;5091566;28;20495;-43
2023/04/09 02:12:11;;;;;;;37.85;29.20;;;;;;;11.07;84.22;102414.88;5091576;28;20043;-43
2023/04/09 02:14:37;;;;;;;37.85;29.55;;;;;;;11.06;84.12;102415.97;5091621;28;20126;-44
2023/04/09 02:17:03;;;;;;;38.00;30.75;;;;;;;11.01;83.71;102411.25;5095346;28;20035;-43
2023/04/09 02:19:42;;;;;;;39.33;30.67;;;;;;;11.03;84.25;102413.72;5095535;28;20039;-44
2023/04/09 02:22:08;;;;;;;39.75;29.80;;;;;;;10.94;84.67;102405.13;5095576;28;20101;-43
2023/04/09 02:24:33;;;;;;;37.92;30.08;;;;;;;10.97;84.62;102403.75;5095157;28;20481;-43
2023/04/09 02:26:58;;;;;;;40.42;30.00;;;;;;;10.97;84.67;102409.28;5095211;28;20036;-44
2023/04/09 02:29:24;;;;;;;40.03;31.20;;;;;;;10.93;85.08;102406.22;5095166;28;20388;-44
2023/04/09 02:31:51;;;;;;;41.22;31.60;;;;;;;10.96;85.01;102402.91;5095132;28;20477;-43
2023/04/09 02:34:17;;;;;;;38.50;30.98;;;;;;;10.95;84.64;102400.41;5094193;28;20032;-42
2023/04/09 02:36:42;;;;;;;40.55;30.83;;;;;;;10.93;84.89;102404.28;5091635;28;20031;-44
2023/04/09 02:39:08;;;;;;;39.25;31.30;;;;;;;10.96;85.00;102399.31;5093460;28;20044;-44
2023/04/09 02:41:34;;;;;;;41.00;32.67;;;;;;;10.86;84.78;102389.03;5094827;28;20052;-44
2023/04/09 02:43:59;;;;;;;39.35;30.90;;;;;;;10.92;85.12;102399.84;5093543;28;20024;-44
2023/04/09 02:46:25;;;;;;;41.88;32.63;;;;;;;10.87;84.83;102399.84;5094800;28;20027;-45
2023/04/09 02:48:50;;;;;;;39.83;31.60;;;;;;;10.89;84.93;102397.63;5093692;28;20032;-44
2023/04/09 02:51:15;;;;;;;40.10;30.85;;;;;;;10.88;85.04;102400.66;5094705;28;20017;-44
2023/04/09 02:53:40;;;;;;;40.65;30.05;;;;;;;10.87;85.00;102399.00;5094695;28;20431;-44
2023/04/09 02:56:06;;;;;;;38.60;30.65;;;;;;;10.86;85.57;102397.34;5094483;28;20107;-45
2023/04/09 02:58:31;;;;;;;39.17;30.85;;;;;;;10.85;84.91;102392.91;5094617;28;20028;-44
2023/04/09 03:00:56;;;;;;;41.50;32.92;;;;;;;10.85;85.38;102390.16;5094355;28;20477;-44
2023/04/09 03:03:21;;;;;;;41.88;31.65;;;;;;;10.82;84.81;102394.25;5094455;28;20031;-43
2023/04/09 03:05:47;;;;;;;41.55;32.25;;;;;;;10.79;85.71;102389.28;5094316;28;20028;-44
2023/04/09 03:08:12;;;;;;;40.83;31.23;;;;;;;10.77;85.34;102394.25;5094401;28;20020;-47
2023/04/09 03:10:37;;;;;;;42.28;31.35;;;;;;;10.79;85.95;102397.59;5094204;28;20016;-43
2023/04/09 03:13:03;;;;;;;42.28;33.35;;;;;;;10.74;85.17;102389.25;5094024;28;20035;-43
2023/04/09 03:15:28;;;;;;;39.05;30.77;;;;;;;10.73;85.97;102384.81;5094059;28;20028;-44
2023/04/09 03:17:53;;;;;;;39.80;30.48;;;;;;;10.73;85.86;102385.66;5094040;28;20143;-45
2023/04/09 03:20:18;;;;;;;43.15;31.63;;;;;;;10.72;85.90;102385.94;5094040;28;20081;-42
2023/04/09 03:22:44;;;;;;;42.95;33.08;;;;;;;10.72;85.82;102388.69;5093957;28;20125;-43
2023/04/09 03:25:09;;;;;;;42.92;33.00;;;;;;;10.67;85.53;102385.91;5093795;28;20028;-46
2023/04/09 03:27:35;;;;;;;42.33;31.73;;;;;;;10.66;85.75;102382.31;5093377;28;20056;-43
2023/04/09 03:30:00;;;;;;;43.03;33.13;;;;;;;10.65;86.04;102379.78;5094092;28;20027;-44
2023/04/09 03:32:25;;;;;;;41.70;32.45;;;;;;;10.65;86.06;102377.03;5093829;28;20453;-43
2023/04/09 03:34:50;;;;;;;42.45;32.22;;;;;;;10.63;85.39;102370.94;5088929;28;20282;-42
2023/04/09 03:37:16;;;;;;;42.13;33.40;;;;;;;10.60;85.60;102369.53;5093280;28;20077;-46
2023/04/09 03:39:41;;;;;;;41.58;32.13;;;;;;;10.59;85.39;102365.09;5093415;28;20488;-45
2023/04/09 03:42:06;;;;;;;40.70;32.22;;;;;;;10.61;86.10;102369.28;5093567;28;20033;-43
2023/04/09 03:44:32;;;;;;;42.80;33.10;;;;;;;10.62;86.74;102364.56;5093528;28;20027;-45
2023/04/09 03:46:57;;;;;;;43.70;32.40;;;;;;;10.63;85.90;102370.94;5093391;28;20388;-49
2023/04/09 03:49:22;;;;;;;41.65;31.90;;;;;;;10.66;85.70;102364.84;5093490;28;20028;-46
2023/04/09 03:51:47;;;;;;;41.65;32.13;;;;;;;10.60;85.14;102362.06;5093342;28;20469;-43
2023/04/09 03:54:13;;;;;;;40.78;31.75;;;;;;;10.57;83.62;102356.25;5093438;28;20030;-41
2023/04/09 03:56:38;;;;;;;38.85;30.35;;;;;;;10.54;83.16;102362.31;5093208;28;20031;-41
2023/04/09 03:59:03;;;;;;;41.17;31.20;;;;;;;10.50;83.75;102358.41;5093192;28;20024;-43
2023/04/09 04:01:29;;;;;;;42.33;31.35;;;;;;;10.46;84.10;102360.88;5093247;28;20380;-42
2023/04/09 04:03:54;;;;;;;41.25;30.20;;;;;;;10.44;84.84;102358.38;5093213;28;20081;-42
2023/04/09 04:06:19;;;;;;;41.78;31.30;;;;;;;10.43;84.09;102358.66;5093050;28;20020;-42
2023/04/09 04:08:45;;;;;;;40.95;31.92;;;;;;;10.41;83.74;102360.84;5092987;28;20085;-42
2023/04/09 04:11:10;;;;;;;39.65;30.48;;;;;;;10.41;83.77;102363.63;5092871;28;20020;-43
2023/04/09 04:13:35;;;;;;;39.35;30.23;;;;;;;10.43;83.97;102359.47;5092448;28;20043;-42
2023/04/09 04:16:01;;;;;;;38.00;29.42;;;;;;;10.38;83.51;102365.00;5091407;28;20081;-42
2023/04/09 04:18:26;;;;;;;39.35;29.92;;;;;;;10.37;83.55;102362.44;5092740;28;20028;-44
2023/04/09 04:20:51;;;;;;;39.65;29.88;;;;;;;10.40;84.03;102359.19;5092771;28;20023;-42
2023/04/09 04:23:16;;;;;;;37.85;27.92;;;;;;;10.39;83.13;102366.63;5092744;28;20016;-42
2023/04/09 04:25:42;;;;;;;38.95;29.38;;;;;;;10.34;82.54;102360.25;5092413;28;20107;-43
2023/04/09 04:28:07;;;;;;;39.22;28.90;;;;;;;10.33;82.19;102364.91;5092803;28;20491;-45
2023/04/09 04:30:33;;;;;;;37.65;29.05;;;;;;;10.34;82.24;102366.59;5092517;28;20503;-42
2023/04/09 04:32:59;;;;;;;38.80;28.98;;;;;;;10.28;81.73;102362.13;5092546;28;20042;-42
2023/04/09 04:35:24;;;;;;;38.85;28.48;;;;;;;10.26;81.98;102359.63;5088422;28;20035;-41
2023/04/09 04:37:52;;;;;;;37.45;27.83;;;;;;;10.27;81.50;102363.22;5091693;28;20032;-41
2023/04/09 04:40:17;;;;;;;38.10;29.02;;;;;;;10.20;81.18;102365.41;5092431;28;20111;-42
2023/04/09 04:42:43;;;;;;;38.67;29.02;;;;;;;10.14;81.45;102365.34;5092247;28;20106;-41
2023/04/09 04:45:08;;;;;;;37.05;28.15;;;;;;;10.12;81.94;102363.97;5092236;28;20032;-42
2023/04/09 04:47:34;;;;;;;37.08;27.33;;;;;;;10.13;81.64;102360.09;5092311;28;20066;-42
2023/04/09 04:50:00;;;;;;;36.50;27.42;;;;;;;10.12;81.80;102352.91;5092176;28;20056;-42
2023/04/09 04:52:25;;;;;;;35.33;26.70;;;;;;;10.07;81.33;102364.75;5091957;28;20039;-42
2023/04/09 04:54:51;;;;;;;35.83;27.48;;;;;;;10.04;82.19;102373.56;5092082;28;20036;-41
2023/04/09 04:57:16;;;;;;;36.45;27.38;;;;;;;9.97;81.29;102378.50;5090676;28;20426;-42
2023/04/09 04:59:41;;;;;;;37.33;28.10;;;;;;;9.88;80.83;102369.84;5091965;28;20024;-41
2023/04/09 05:02:07;;;;;;;37.70;27.88;;;;;;;9.88;82.02;102369.84;5092156;28;20039;-42
2023/04/09 05:04:32;;;;;;;38.20;28.63;;;;;;;9.82;81.30;102371.72;5091912;28;20469;-41
2023/04/09 05:06:58;;;;;;;39.50;27.90;;;;;;;9.81;81.38;102370.09;5091911;28;20500;-42
2023/04/09 05:09:23;;;;;;;38.50;28.20;;;;;;;9.71;81.19;102370.00;5091910;28;20028;-41
2023/04/09 05:11:48;;;;;;;35.03;26.20;;;;;;;9.72;82.24;102363.38;5092041;28;20149;-43
2023/04/09 05:14:14;;;;;;;37.75;27.80;;;;;;;9.64;81.68;102367.44;5091833;28;20369;-45
2023/04/09 05:16:39;;;;;;;35.40;26.23;;;;;;;9.66;82.18;102369.94;5090571;28;20020;-42
2023/04/09 05:19:05;;;;;;;36.63;26.92;;;;;;;9.59;82.29;102374.84;5091813;28;20028;-44
2023/04/09 05:21:30;;;;;;;34.75;26.45;;;;;;;9.54;82.62;102364.59;5091884;28;20626;-42
2023/04/09 05:23:56;;;;;;;35.13;26.38;;;;;;;9.52;81.76;102372.31;5091696;28;20081;-43
2023/04/09 05:26:21;;;;;;;37.42;27.40;;;;;;;9.48;82.06;102368.41;5091677;28;20032;-43
2023/04/09 05:28:47;;;;;;;36.22;26.35;;;;;;;9.47;82.97;102362.03;5091904;28;20027;-45
2023/04/09 05:31:14;;;;;;;39.10;27.30;;;;;;;9.44;82.02;102370.88;5091805;28;20038;-45
2023/04/09 05:33:40;;;;;;;35.47;26.45;;;;;;;9.29;82.00;102365.16;5091785;28;20038;-42
2023/04/09 05:36:06;;;;;;;37.00;27.00;;;;;;;9.38;82.67;102373.84;5088083;28;20032;-43
2023/04/09 05:38:31;;;;;;;36.42;27.27;;;;;;;9.30;82.72;102369.59;5085675;28;20044;-43
2023/04/09 05:40:56;;;;;;;37.08;27.08;;;;;;;9.30;83.30;102370.44;5071513;28;20029;-43
2023/04/09 05:43:22;;;;;;;39.53;27.23;;;;;;;9.24;83.07;102374.22;5071523;28;20028;-44
2023/04/09 05:45:47;;;;;;;37.13;27.70;;;;;;;9.20;82.63;102375.84;5071596;28;20036;-45
2023/04/09 05:48:12;;;;;;;37.55;26.83;;;;;;;9.18;83.82;102370.56;5071604;28;20078;-43
2023/04/09 05:50:38;;;;;;;38.53;28.00;;;;;;;9.16;83.56;102377.47;5074991;28;20032;-44
2023/04/09 05:53:03;;;;;;;37.05;26.90;;;;;;;9.16;83.86;102380.22;5075664;28;20400;-44
2023/04/09 05:55:30;;;;;;;36.50;26.63;;;;;;;9.14;84.30;102366.69;5075590;28;20032;-45
2023/04/09 05:57:56;;;;;;;35.00;26.33;;;;;;;9.19;83.90;102374.19;5075488;28;20032;-44
2023/04/09 06:00:21;;;;;;;36.60;27.15;;;;;;;9.18;83.59;102372.53;5075436;28;20074;-44
2023/04/09 06:02:46;;;;;;;36.70;27.50;;;;;;;9.17;84.17;102377.19;5074054;28;20113;-46
2023/04/09 06:05:12;;;;;;;37.00;27.55;;;;;;;9.20;84.20;102378.63;5075246;28;20032;-44
2023/04/09 06:07:37;;;;;;;36.00;26.90;;;;;;;9.19;83.94;102375.00;5074052;28;20051;-44
2023/04/09 06:10:02;;;;;;;37.40;26.90;;;;;;;9.23;83.96;102377.25;5075234;28;20078;-44
2023/04/09 06:12:28;;;;;;;38.95;28.02;;;;;;;9.19;83.67;102376.94;5075216;28;20063;-44
2023/04/09 06:14:53;;;;;;;38.42;28.13;;;;;;;9.19;83.90;102380.53;5073772;28;20082;-45
2023/04/09 06:17:18;;;;;;;38.00;27.70;;;;;;;9.18;83.72;102383.56;5075053;28;20087;-44
2023/04/09 06:19:44;;;;;;;39.20;29.50;;;;;;;9.20;84.30;102376.69;5074881;28;20548;-45
2023/04/09 06:22:09;;;;;;;38.42;28.52;;;;;;;9.20;84.29;102384.16;5074936;28;20028;-44
2023/04/09 06:24:35;;;;;;;38.15;28.55;;;;;;;9.25;84.74;102381.44;5073442;28;20041;-45
2023/04/09 06:27:00;;;;;;;38.50;28.80;;;;;;;9.25;84.45;102383.38;5090166;28;20032;-44
2023/04/09 06:29:26;;;;;;;39.25;28.88;;;;;;;9.29;84.50;102388.13;5094495;28;20031;-43
2023/04/09 06:31:51;;;;;;;39.03;28.95;;;;;;;9.31;84.03;102388.66;5085661;28;20024;-51
2023/04/09 06:34:17;;;;;;;38.63;28.52;;;;;;;9.31;84.20;102388.66;5094956;28;20031;-47
2023/04/09 06:36:43;;;;;;;40.95;30.02;;;;;;;9.35;83.90;102395.34;5094790;28;20024;-45
2023/04/09 06:39:08;;;;;;;38.72;30.23;;;;;;;9.36;84.14;102401.69;5094321;28;20051;-45
2023/04/09 06:41:34;;;;;;;40.40;30.80;;;;;;;9.40;84.50;102399.28;5094433;28;20016;-47
2023/04/09 06:43:59;;;;;;;40.33;29.77;;;;;;;9.40;83.82;102399.28;5094623;28;20036;-44
2023/04/09 06:46:25;;;;;;;38.42;29.15;;;;;;;9.42;84.44;102403.44;5094466;28;20031;-45
2023/04/09 06:48:50;;;;;;;39.95;30.35;;;;;;;9.40;84.15;102400.09;5094475;28;20051;-46
2023/04/09 06:51:15;;;;;;;39.25;29.55;;;;;;;9.48;84.87;102399.63;5094278;28;20032;-43
2023/04/09 06:53:41;;;;;;;38.30;29.73;;;;;;;9.59;84.45;102408.84;5094287;28;20032;-42
2023/04/09 06:56:06;;;;;;;38.80;29.65;;;;;;;9.63;83.88;102398.13;5094051;28;20116;-43
2023/04/09 06:58:32;;;;;;;39.38;30.25;;;;;;;9.69;83.70;102399.81;5094092;28;20081;-45
2023/04/09 07:00:58;;;;;;;35.50;27.52;;;;;;;9.77;84.64;102399.34;5093042;28;20388;-44
2023/04/09 07:03:23;;;;;;;37.92;29.42;;;;;;;9.82;84.33;102393.03;5093903;28;20469;-44
2023/04/09 07:05:49;;;;;;;38.88;28.10;;;;;;;9.90;83.60;102400.00;5093301;28;20103;-46
2023/04/09 07:08:14;;;;;;;37.22;28.75;;;;;;;9.95;83.54;102400.03;5093896;28;20097;-42
2023/04/09 07:10:40;;;;;;;38.78;29.08;;;;;;;9.95;83.09;102408.34;5094176;28;20063;-43
2023/04/09 07:13:05;;;;;;;38.30;29.35;;;;;;;9.94;82.80;102410.28;5093995;28;20030;-43
2023/04/09 07:15:31;;;;;;;41.38;29.67;;;;;;;9.94;82.89;102404.75;5093906;28;20538;-43
2023/04/09 07:17:56;;;;;;;37.80;29.38;;;;;;;9.98;83.09;102411.41;5089479;28;20774;-42
2023/04/09 07:20:22;;;;;;;39.60;30.80;;;;;;;9.98;82.60;102411.41;5093008;28;20110;-45
2023/04/09 07:22:47;;;;;;;38.72;30.02;;;;;;;9.99;81.99;102407.53;5093922;28;20474;-44
2023/04/09 07:25:14;;;;;;;38.05;29.42;;;;;;;10.03;82.50;102412.56;5093697;28;20020;-46
2023/04/09 07:27:39;;;;;;;40.88;32.53;;;;;;;10.06;81.94;102409.28;5092387;28;20020;-46
2023/04/09 07:30:05;;;;;;;39.90;31.02;;;;;;;10.07;81.72;102413.69;5078843;28;20056;-44
2023/04/09 07:32:30;;;;;;;39.25;31.05;;;;;;;10.06;81.72;102412.84;5073355;28;20043;-43
2023/04/09 07:34:58;;;;;;;39.92;31.05;;;;;;;10.02;82.53;102397.88;5073045;28;20400;-44
2023/04/09 07:37:23;;;;;;;39.97;30.67;;;;;;;10.09;82.39;102405.97;5073300;28;20050;-43
2023/04/09 07:39:50;;;;;;;39.08;30.17;;;;;;;10.11;81.88;102406.53;5073294;28;20056;-43
2023/04/09 07:42:15;;;;;;;41.28;30.92;;;;;;;10.21;82.05;102412.16;5073466;28;20682;-46
2023/04/09 07:44:40;;;;;;;45.53;30.15;;;;;;;10.32;82.21;102410.28;5072937;28;20028;-42
2023/04/09 07:47:07;;;;;;;46.67;30.38;;;;;;;10.43;82.34;102409.28;5072720;28;20032;-43
2023/04/09 07:49:34;;;;;;;46.58;31.50;;;;;;;10.51;81.37;102405.19;5072703;28;20031;-43
2023/04/09 07:52:00;;;;;;;40.58;29.95;;;;;;;10.54;81.08;102396.34;5073088;28;20703;-42
2023/04/09 07:54:25;;;;;;;40.30;31.80;;;;;;;10.67;81.73;102411.66;5072959;28;20040;-43
2023/04/09 07:56:51;;;;;;;41.10;31.52;;;;;;;10.72;80.70;102403.38;5072996;28;20028;-42
2023/04/09 07:59:16;;;;;;;39.15;31.13;;;;;;;10.76;80.73;102401.75;5072903;28;20137;-44
2023/04/09 08:01:42;;;;;;;39.03;30.88;;;;;;;10.84;80.43;102405.91;5072764;28;20031;-44
2023/04/09 08:04:08;;;;;;;39.40;31.70;;;;;;;10.92;81.07;102405.38;5072466;28;20107;-43
2023/04/09 08:06:33;;;;;;;40.25;31.63;;;;;;;10.98;80.57;102414.56;5072449;28;20025;-42
2023/04/09 08:08:59;;;;;;;40.58;31.60;;;;;;;11.00;80.38;102417.88;5075924;28;20024;-42
2023/04/09 08:11:25;;;;;;;38.58;30.10;;;;;;;11.00;80.84;102415.13;5091010;28;20074;-42
2023/04/09 08:13:51;;;;;;;38.38;31.10;;;;;;;10.98;80.23;102413.72;5086829;28;20031;-43
2023/04/09 08:16:17;;;;;;;40.25;30.33;;;;;;;11.02;80.56;102410.16;5091285;28;20035;-42
2023/04/09 08:18:42;;;;;;;40.67;31.77;;;;;;;11.01;80.37;102405.72;5090119;28;20050;-43
2023/04/09 08:21:07;;;;;;;39.83;32.35;;;;;;;11.04;80.77;102412.63;5075036;28;20078;-41
2023/04/09 08:23:33;;;;;;;42.53;33.63;;;;;;;11.07;80.11;102406.56;5070308;28;20118;-43
2023/04/09 08:25:58;;;;;;;39.30;32.33;;;;;;;11.13;80.45;102401.88;5070693;28;20032;-44
2023/04/09 08:28:23;;;;;;;38.75;31.92;;;;;;;11.19;81.66;102406.31;5066591;28;20056;-43
2023/04/09 08:30:49;;;;;;;39.92;32.67;;;;;;;11.30;80.09;102405.25;5068810;28;20401;-43
2023/04/09 08:33:15;;;;;;;40.35;33.47;;;;;;;11.36;80.25;102409.69;5070487;28;20043;-44
2023/04/09 08:35:41;;;;;;;39.83;32.00;;;;;;;11.40;80.52;102407.19;5068806;28;20423;-43
2023/04/09 08:38:06;;;;;;;40.38;33.58;;;;;;;11.46;80.03;102408.06;5070401;28;20028;-44
2023/04/09 08:40:35;;;;;;;42.47;34.25;;;;;;;11.54;80.33;102404.75;5070495;28;20449;-44
2023/04/09 08:43:03;;;;;;;42.03;34.58;;;;;;;11.64;80.07;102407.53;5070561;28;20028;-43
2023/04/09 08:45:29;;;;;;;42.50;34.92;;;;;;;11.70;80.30;102402.81;5070640;28;20120;-42
2023/04/09 08:47:58;;;;;;;42.53;34.45;;;;;;;11.75;79.95;102404.78;5070546;28;20107;-43
2023/04/09 08:50:24;;;;;;;41.25;34.67;;;;;;;11.76;80.27;102389.81;5070437;28;20078;-42
2023/04/09 08:52:49;;;;;;;41.97;33.85;;;;;;;11.84;79.37;102386.47;5070293;28;20032;-43
2023/04/09 08:55:15;;;;;;;42.97;35.08;;;;;;;11.86;79.72;102393.41;5070265;28;20105;-41
2023/04/09 08:57:40;;;;;;;45.53;36.55;;;;;;;11.85;78.54;102388.13;5070456;28;20068;-42
2023/04/09 09:00:07;;;;;;;45.30;37.83;;;;;;;11.90;78.25;102379.84;5070564;28;20055;-42
2023/04/09 09:02:32;;;;;;;44.17;36.47;;;;;;;11.95;78.77;102385.38;5070229;28;20111;-42
2023/04/09 09:05:00;;;;;;;45.15;37.53;;;;;;;11.93;79.04;102384.81;5069680;28;20480;-42
2023/04/09 09:07:29;;;;;;;43.92;36.08;;;;;;;11.93;79.41;102393.13;5069557;28;20036;-43
2023/04/09 09:10:03;;;;;;;40.17;33.63;;;;;;;11.94;78.87;102382.88;5070037;28;20032;-43
2023/04/09 09:12:39;;;;;;;43.35;35.25;;;;;;;11.85;78.69;102357.63;5070441;28;20029;-43
2023/04/09 09:15:25;;;;;;;41.67;34.75;;;;;;;12.05;78.94;102378.19;5070404;28;20032;-42
2023/04/09 09:17:58;;;;;;;43.78;35.75;;;;;;;12.09;77.60;102388.44;5070357;28;20496;-43
2023/04/09 09:20:25;;;;;;;42.17;35.53;;;;;;;12.12;79.13;102385.13;5065426;28;20497;-44
2023/04/09 09:22:53;;;;;;;43.97;36.45;;;;;;;12.14;79.45;102384.84;5080825;28;20032;-44
2023/04/09 09:25:22;;;;;;;40.03;33.25;;;;;;;12.23;79.01;102385.13;5089635;28;20024;-43
2023/04/09 09:27:47;;;;;;;41.75;34.08;;;;;;;12.29;77.82;102383.97;5090187;28;20032;-44
2023/04/09 09:30:26;;;;;;;42.78;35.47;;;;;;;12.29;78.44;102370.09;5088580;28;20039;-43
2023/04/09 09:33:10;;;;;;;44.15;36.92;;;;;;;12.35;78.83;102380.06;5090133;28;20032;-43
2023/04/09 09:36:02;;;;;;;;;;;;;;;12.44;78.97;102372.84;5090418;28;20085;-43
2023/04/09 09:38:28;;;;;;;41.92;34.83;;;;;;;12.42;77.47;102371.47;5084615;28;19920;-44
2023/04/09 09:40:54;;;;;;;41.42;34.17;;;;;;;12.45;77.76;102365.34;5090201;28;20426;-43
2023/04/09 09:43:19;;;;;;;41.72;34.50;;;;;;;12.55;78.70;102376.44;5089580;28;20067;-42
2023/04/09 09:45:46;;;;;;;41.95;34.17;;;;;;;12.53;77.99;102363.94;5089719;28;20046;-42
2023/04/09 09:48:11;;;;;;;42.30;34.75;;;;;;;12.60;77.71;102364.47;5089896;28;20028;-42
2023/04/09 09:50:40;;;;;;;42.25;33.78;;;;;;;12.64;76.69;102368.34;5090273;28;20043;-42
2023/04/09 09:53:07;;;;;;;39.28;32.80;;;;;;;12.69;76.72;102360.00;5090088;28;20024;-43
2023/04/09 09:55:37;;;;;;;40.45;34.22;;;;;;;12.77;77.23;102364.13;5089666;28;20036;-42
2023/04/09 09:58:11;;;;;;;42.55;33.40;;;;;;;12.84;76.67;102352.72;5089980;28;20051;-42
2023/04/09 10:00:38;;;;;;;39.97;34.22;;;;;;;12.85;76.22;102352.41;5089751;28;20462;-43
2023/04/09 10:03:13;;;;;;;41.25;34.15;;;;;;;12.93;76.43;102351.00;5089440;28;20036;-42
2023/04/09 10:05:39;;;;;;;40.35;34.10;;;;;;;13.01;76.68;102344.03;5089630;28;20035;-42
2023/04/09 10:08:06;;;;;;;42.10;33.40;;;;;;;13.11;75.81;102342.00;5089716;28;20093;-42
2023/04/09 10:10:32;;;;;;;37.95;31.70;;;;;;;13.18;73.78;102343.63;5089296;28;20024;-42
2023/04/09 10:12:58;;;;;;;41.28;32.55;;;;;;;13.25;74.47;102341.38;5089386;28;20064;-42
2023/04/09 10:15:25;;;;;;;39.92;33.13;;;;;;;13.35;74.34;102337.69;5087665;28;20413;-43
2023/04/09 10:17:50;;;;;;;39.58;33.08;;;;;;;13.41;71.80;102331.84;5086925;28;20028;-43
2023/04/09 10:20:24;;;;;;;37.95;32.25;;;;;;;13.49;71.56;102337.91;5089308;28;20513;-42
2023/04/09 10:22:52;;;;;;;36.75;29.50;;;;;;;13.63;71.07;102335.28;5089484;28;20042;-42
2023/04/09 10:25:18;;;;;;;38.78;31.73;;;;;;;13.67;70.86;102328.03;5088982;28;20043;-42
2023/04/09 10:27:45;;;;;;;37.13;30.00;;;;;;;13.74;70.30;102334.09;5088968;28;20032;-43
2023/04/09 10:30:30;;;;;;;37.80;29.58;;;;;;;13.76;70.69;102320.72;5087735;28;20027;-41
2023/04/09 10:33:08;;;;;;;34.13;27.83;;;;;;;13.73;68.86;102319.38;5088985;28;20032;-41
2023/04/09 10:35:33;;;;;;;35.55;28.48;;;;;;;13.80;68.50;102323.75;5087825;28;20039;-42
2023/04/09 10:37:59;;;;;;;34.13;27.20;;;;;;;13.82;67.36;102322.34;5092583;28;20020;-42
2023/04/09 10:40:27;;;;;;;33.28;26.20;;;;;;;13.86;67.16;102311.44;5092931;28;20055;-43
2023/04/09 10:42:54;;;;;;;33.08;26.67;;;;;;;13.87;67.17;102308.41;5093042;28;20024;-43
2023/04/09 10:45:20;;;;;;;33.28;26.05;;;;;;;13.91;66.53;102299.44;5092944;28;20031;-42
2023/04/09 10:47:49;;;;;;;31.73;25.55;;;;;;;13.97;66.09;102303.84;5092895;28;20035;-42
2023/04/09 10:50:21;;;;;;;31.98;25.70;;;;;;;14.07;65.41;102312.09;5092887;28;20107;-42
2023/04/09 10:52:51;;;;;;;32.58;26.33;;;;;;;14.11;64.41;102310.38;5092908;28;20035;-42
2023/04/09 10:55:40;;;;;;;32.22;26.50;;;;;;;14.20;65.75;102302.22;5091119;28;20048;-41
2023/04/09 10:58:07;;;;;;;30.27;23.73;;;;;;;14.28;63.75;102301.56;5093121;28;20100;-42
2023/04/09 11:00:36;;;;;;;30.30;22.23;;;;;;;14.37;64.50;102292.56;5092721;28;20039;-42
2023/04/09 11:03:01;;;;;;;29.50;22.75;;;;;;;14.48;64.20;102302.44;5092390;28;20024;-42
2023/04/09 11:05:31;;;;;;;28.63;22.25;;;;;;;14.55;62.03;102300.13;5092388;28;20104;-42
2023/04/09 11:08:05;;;;;;;27.88;21.08;;;;;;;14.64;63.01;102294.75;5092444;28;20032;-43
2023/04/09 11:10:35;;;;;;;27.98;21.05;;;;;;;14.70;62.14;102292.72;5090531;28;20224;-43